createdAt,value
2019-03-30T00:01:44.636Z,7.34
2019-03-30T00:04:36.686Z,7.29
2019-03-30T00:07:20.853Z,7.01
2019-03-30T00:09:58.856Z,7.10
2019-03-30T00:12:33.108Z,7.19
2019-03-30T00:15:53.377Z,7.30
2019-03-30T00:18:30.510Z,7.24
2019-03-30T00:20:59.697Z,7.17
2019-03-30T00:23:36.144Z,7.16
2019-03-30T00:26:08.000Z,7.17
2019-03-30T00:28:44.483Z,7.01
2019-03-30T00:31:13.534Z,6.98
2019-03-30T00:33:43.331Z,6.83
2019-03-30T00:36:22.134Z,6.86
2019-03-30T00:38:58.254Z,6.86
2019-03-30T00:41:28.386Z,6.97
2019-03-30T00:44:00.524Z,6.89
2019-03-30T00:46:34.493Z,6.50
2019-03-30T00:49:14.340Z,6.64
2019-03-30T00:51:48.224Z,6.53
2019-03-30T00:54:25.158Z,6.38
2019-03-30T00:56:54.316Z,6.47
2019-03-30T00:59:23.601Z,6.51
2019-03-30T01:01:52.772Z,6.34
2019-03-30T01:04:21.977Z,6.17
2019-03-30T01:06:51.150Z,6.19
2019-03-30T01:09:20.327Z,6.32
2019-03-30T01:11:49.837Z,6.41
2019-03-30T01:14:19.005Z,6.50
2019-03-30T01:16:48.163Z,6.51
2019-03-30T01:19:17.353Z,6.51
2019-03-30T01:21:46.598Z,6.51
2019-03-30T01:24:15.875Z,6.40
2019-03-30T01:26:45.114Z,6.28
2019-03-30T01:29:14.299Z,6.27
2019-03-30T01:31:43.461Z,6.28
2019-03-30T01:34:12.687Z,6.14
2019-03-30T01:36:41.830Z,6.15
2019-03-30T01:39:11.077Z,6.10
2019-03-30T01:41:40.338Z,6.05
2019-03-30T01:44:09.575Z,5.96
2019-03-30T01:46:38.792Z,6.01
2019-03-30T01:49:07.940Z,5.79
2019-03-30T01:51:37.140Z,5.75
2019-03-30T01:54:06.345Z,5.76
2019-03-30T01:56:35.631Z,5.75
2019-03-30T01:59:05.053Z,5.78
2019-03-30T02:01:34.391Z,5.82
2019-03-30T02:04:03.686Z,5.73
2019-03-30T02:06:33.069Z,5.77
2019-03-30T02:09:02.339Z,5.67
2019-03-30T02:11:31.655Z,5.66
2019-03-30T02:14:00.904Z,5.76
2019-03-30T02:16:30.180Z,5.83
2019-03-30T02:18:59.537Z,5.72
2019-03-30T02:21:28.800Z,5.66
2019-03-30T02:23:58.068Z,5.64
2019-03-30T02:26:27.398Z,5.61
2019-03-30T02:28:56.667Z,5.53
2019-03-30T02:31:26.016Z,5.59
2019-03-30T02:33:55.287Z,5.42
2019-03-30T02:36:24.642Z,5.33
2019-03-30T02:38:53.977Z,5.35
2019-03-30T02:41:23.254Z,5.40
2019-03-30T02:43:52.523Z,5.37
2019-03-30T02:46:21.831Z,5.30
2019-03-30T02:48:51.101Z,5.16
2019-03-30T02:51:20.462Z,5.19
2019-03-30T02:53:49.732Z,5.14
2019-03-30T02:56:19.118Z,5.03
2019-03-30T02:58:48.426Z,4.99
2019-03-30T03:01:17.714Z,5.11
2019-03-30T03:03:47.034Z,5.09
2019-03-30T03:06:16.311Z,4.84
2019-03-30T03:08:45.607Z,4.67
2019-03-30T03:11:14.970Z,4.76
2019-03-30T03:13:44.221Z,4.63
2019-03-30T03:16:13.502Z,4.60
2019-03-30T03:18:42.842Z,4.51
2019-03-30T03:21:12.193Z,4.51
2019-03-30T03:23:41.467Z,4.50
2019-03-30T03:26:10.837Z,4.48
2019-03-30T03:28:40.092Z,4.47
2019-03-30T03:31:09.383Z,4.64
2019-03-30T03:33:38.753Z,4.65
2019-03-30T03:36:08.058Z,4.63
2019-03-30T03:38:37.317Z,4.78
2019-03-30T03:41:06.682Z,4.83
2019-03-30T03:43:36.108Z,4.78
2019-03-30T03:46:05.485Z,4.74
2019-03-30T03:48:34.720Z,4.61
2019-03-30T03:51:05.303Z,4.46
2019-03-30T03:53:35.662Z,4.36
2019-03-30T03:56:06.076Z,4.32
2019-03-30T03:58:36.450Z,4.37
2019-03-30T04:01:05.829Z,4.31
2019-03-30T04:03:35.397Z,4.40
2019-03-30T04:06:06.754Z,4.41
2019-03-30T04:08:36.658Z,4.44
2019-03-30T04:11:06.003Z,4.44
2019-03-30T04:13:35.296Z,4.18
2019-03-30T04:16:04.605Z,4.19
2019-03-30T04:18:33.950Z,4.15
2019-03-30T04:21:03.219Z,4.33
2019-03-30T04:23:32.515Z,4.35
2019-03-30T04:26:01.794Z,4.18
2019-03-30T04:28:31.102Z,4.21
2019-03-30T04:31:00.684Z,4.27
2019-03-30T04:33:30.055Z,4.27
2019-03-30T04:35:59.311Z,4.19
2019-03-30T04:38:28.581Z,4.14
2019-03-30T04:40:57.841Z,3.87
2019-03-30T04:43:27.142Z,3.99
2019-03-30T04:45:56.404Z,4.08
2019-03-30T04:48:29.336Z,3.99
2019-03-30T04:50:56.687Z,3.98
2019-03-30T04:53:26.049Z,3.83
2019-03-30T04:55:55.405Z,3.75
2019-03-30T04:58:24.747Z,3.78
2019-03-30T05:00:54.130Z,3.84
2019-03-30T05:03:23.394Z,3.83
2019-03-30T05:05:52.754Z,3.75
2019-03-30T05:08:22.082Z,3.71
2019-03-30T05:10:51.408Z,3.59
2019-03-30T05:13:20.688Z,3.58
2019-03-30T05:15:49.951Z,3.61
2019-03-30T05:18:19.283Z,3.64
2019-03-30T05:20:48.591Z,3.73
2019-03-30T05:23:17.905Z,3.73
2019-03-30T05:25:47.271Z,3.70
2019-03-30T05:28:16.593Z,3.70
2019-03-30T05:30:48.151Z,3.55
2019-03-30T05:33:17.420Z,3.63
2019-03-30T05:35:46.785Z,3.73
2019-03-30T05:38:16.146Z,3.55
2019-03-30T05:40:45.415Z,3.54
2019-03-30T05:43:14.686Z,3.65
2019-03-30T05:45:43.917Z,3.75
2019-03-30T05:48:13.079Z,3.90
2019-03-30T05:50:42.368Z,3.91
2019-03-30T05:53:11.561Z,3.88
2019-03-30T05:55:40.747Z,3.91
2019-03-30T05:58:10.259Z,3.82
2019-03-30T06:00:39.507Z,3.86
2019-03-30T06:03:10.253Z,3.98
2019-03-30T06:05:39.443Z,4.11
2019-03-30T06:08:08.622Z,4.17
2019-03-30T06:10:39.009Z,4.22
2019-03-30T06:13:08.400Z,4.30
2019-03-30T06:15:37.597Z,4.45
2019-03-30T06:18:06.775Z,4.51
2019-03-30T06:20:35.932Z,4.52
2019-03-30T06:23:05.142Z,4.57
2019-03-30T06:25:34.413Z,4.62
2019-03-30T06:28:03.668Z,4.78
2019-03-30T06:30:32.928Z,4.91
2019-03-30T06:33:02.160Z,5.06
2019-03-30T06:35:31.462Z,5.19
2019-03-30T06:38:00.650Z,5.32
2019-03-30T06:40:29.843Z,5.47
2019-03-30T06:43:02.026Z,5.61
2019-03-30T06:45:31.225Z,5.78
2019-03-30T06:48:00.393Z,5.92
2019-03-30T06:50:31.618Z,6.09
2019-03-30T06:53:00.857Z,6.35
2019-03-30T06:55:30.133Z,6.52
2019-03-30T06:57:59.322Z,6.64
2019-03-30T07:00:37.924Z,6.75
2019-03-30T07:03:07.813Z,6.81
2019-03-30T07:05:39.861Z,6.92
2019-03-30T07:08:17.168Z,7.14
2019-03-30T07:10:46.559Z,7.28
2019-03-30T07:13:15.986Z,7.46
2019-03-30T07:15:47.242Z,7.46
2019-03-30T07:18:16.774Z,7.54
2019-03-30T07:20:46.062Z,7.67
2019-03-30T07:23:15.336Z,7.81
2019-03-30T07:25:44.582Z,7.91
2019-03-30T07:28:13.821Z,8.00
2019-03-30T07:30:43.029Z,8.03
2019-03-30T07:33:12.206Z,8.08
2019-03-30T07:35:41.397Z,8.18
2019-03-30T07:38:10.665Z,8.34
2019-03-30T07:40:39.945Z,8.39
2019-03-30T07:43:09.217Z,8.39
2019-03-30T07:45:38.560Z,8.51
2019-03-30T07:48:07.717Z,8.66
2019-03-30T07:50:36.998Z,8.73
2019-03-30T07:53:06.219Z,8.75
2019-03-30T07:55:35.507Z,8.85
2019-03-30T07:58:04.807Z,8.95
2019-03-30T08:00:33.944Z,9.05
2019-03-30T08:03:03.102Z,9.16
2019-03-30T08:05:32.582Z,9.22
2019-03-30T08:08:01.837Z,9.31
2019-03-30T08:10:31.112Z,9.45
2019-03-30T08:13:00.766Z,9.60
2019-03-30T08:15:30.008Z,9.66
2019-03-30T08:17:59.210Z,9.78
2019-03-30T08:20:28.378Z,9.92
2019-03-30T08:22:59.050Z,10.07
2019-03-30T08:25:28.210Z,10.29
2019-03-30T08:27:57.420Z,10.29
2019-03-30T08:30:26.689Z,10.37
2019-03-30T08:32:55.904Z,10.50
2019-03-30T08:35:25.150Z,10.66
2019-03-30T08:37:54.335Z,10.83
2019-03-30T08:40:24.711Z,10.89
2019-03-30T08:42:54.084Z,11.00
2019-03-30T08:45:25.319Z,11.20
2019-03-30T08:47:54.643Z,11.30
2019-03-30T08:50:29.522Z,11.41
2019-03-30T08:52:58.726Z,11.60
2019-03-30T08:55:28.005Z,11.76
2019-03-30T08:58:02.263Z,11.90
2019-03-30T09:00:39.520Z,11.97
2019-03-30T09:03:09.026Z,11.99
2019-03-30T09:05:38.249Z,12.09
2019-03-30T09:08:07.471Z,12.13
2019-03-30T09:10:36.829Z,12.24
2019-03-30T09:13:06.093Z,12.41
2019-03-30T09:15:35.408Z,12.55
2019-03-30T09:18:04.967Z,12.60
2019-03-30T09:20:34.473Z,12.64
2019-03-30T09:23:03.790Z,12.80
2019-03-30T09:28:31.606Z,12.95
2019-03-30T09:31:01.100Z,13.11
2019-03-30T09:33:30.314Z,13.15
2019-03-30T09:35:59.498Z,13.13
2019-03-30T09:38:28.765Z,13.28
2019-03-30T09:40:57.927Z,13.37
2019-03-30T09:43:27.245Z,13.43
2019-03-30T09:45:56.427Z,13.48
2019-03-30T09:48:25.793Z,13.58
2019-03-30T09:50:54.990Z,13.67
2019-03-30T09:53:24.193Z,13.82
2019-03-30T09:55:55.440Z,13.90
2019-03-30T09:58:24.690Z,14.08
2019-03-30T10:00:53.884Z,14.23
2019-03-30T10:03:23.073Z,14.29
2019-03-30T10:05:52.288Z,14.28
2019-03-30T10:08:21.461Z,14.33
2019-03-30T10:10:50.672Z,14.44
2019-03-30T10:13:19.897Z,14.56
2019-03-30T10:15:49.069Z,14.63
2019-03-30T10:18:18.282Z,14.70
2019-03-30T10:20:47.533Z,14.75
2019-03-30T10:23:16.721Z,14.81
2019-03-30T10:25:45.981Z,14.95
2019-03-30T10:28:15.170Z,15.16
2019-03-30T10:30:44.435Z,15.12
2019-03-30T10:33:13.686Z,15.16
2019-03-30T10:35:42.919Z,15.37
2019-03-30T10:38:12.097Z,15.32
2019-03-30T10:40:41.314Z,15.43
2019-03-30T10:43:10.561Z,15.58
2019-03-30T10:45:39.814Z,15.60
2019-03-30T10:48:09.071Z,15.64
2019-03-30T10:50:38.292Z,15.66
2019-03-30T10:53:07.636Z,15.76
2019-03-30T10:55:37.025Z,15.97
2019-03-30T10:58:06.136Z,16.11
2019-03-30T11:00:36.980Z,16.27
2019-03-30T11:03:06.148Z,16.25
2019-03-30T11:05:35.454Z,16.22
2019-03-30T11:08:04.721Z,16.27
2019-03-30T11:10:33.989Z,16.41
2019-03-30T11:13:03.175Z,16.53
2019-03-30T11:15:34.311Z,16.58
2019-03-30T11:18:03.671Z,16.76
2019-03-30T11:20:33.078Z,16.75
2019-03-30T11:23:02.409Z,16.75
2019-03-30T11:25:31.569Z,16.92
2019-03-30T11:28:00.882Z,16.96
2019-03-30T11:30:30.555Z,17.04
2019-03-30T11:32:59.754Z,17.41
2019-03-30T11:35:28.980Z,17.41
2019-03-30T11:37:58.212Z,17.48
2019-03-30T11:40:27.521Z,17.55
2019-03-30T11:42:56.697Z,17.46
2019-03-30T11:45:26.197Z,17.54
2019-03-30T11:47:55.436Z,17.54
2019-03-30T11:50:24.669Z,17.52
2019-03-30T11:52:53.868Z,17.56
2019-03-30T11:55:23.186Z,17.58
2019-03-30T11:57:52.396Z,17.83
2019-03-30T12:00:21.749Z,17.79
2019-03-30T12:02:50.952Z,17.75
2019-03-30T12:05:20.265Z,17.88
2019-03-30T12:07:49.533Z,18.02
2019-03-30T12:10:20.890Z,18.11
2019-03-30T12:12:50.190Z,18.16
2019-03-30T12:15:19.525Z,18.16
2019-03-30T12:17:48.751Z,18.08
2019-03-30T12:20:18.121Z,18.24
2019-03-30T12:22:47.287Z,18.30
2019-03-30T12:25:16.607Z,18.28
2019-03-30T12:27:45.788Z,18.60
2019-03-30T12:30:15.202Z,18.51
2019-03-30T12:32:44.393Z,18.51
2019-03-30T12:35:13.687Z,18.64
2019-03-30T12:37:42.881Z,18.72
2019-03-30T12:40:12.220Z,18.58
2019-03-30T12:42:42.441Z,18.58
2019-03-30T12:45:12.134Z,18.54
2019-03-30T12:47:41.309Z,18.54
2019-03-30T12:50:11.350Z,18.69
2019-03-30T12:52:40.593Z,18.93
2019-03-30T12:55:20.963Z,18.93
2019-03-30T12:57:57.394Z,19.04
2019-03-30T13:00:29.663Z,19.04
2019-03-30T13:03:04.347Z,19.21
2019-03-30T13:05:34.928Z,19.21
2019-03-30T13:08:09.393Z,19.18
2019-03-30T13:10:40.151Z,19.18
2019-03-30T13:13:13.240Z,19.45
2019-03-30T13:15:45.370Z,19.39
2019-03-30T13:18:24.862Z,19.39
2019-03-30T13:20:56.151Z,19.34
2019-03-30T13:23:26.784Z,19.61
2019-03-30T13:26:04.018Z,19.70
2019-03-30T13:28:30.870Z,19.71
2019-03-30T13:31:05.409Z,19.71
2019-03-30T13:33:38.106Z,19.87
2019-03-30T13:36:28.899Z,19.87
2019-03-30T13:39:03.616Z,19.91
2019-03-30T13:41:52.456Z,20.02
2019-03-30T13:44:29.544Z,20.02
2019-03-30T13:47:00.128Z,20.12
2019-03-30T13:49:34.571Z,20.06
2019-03-30T13:52:04.765Z,20.20
2019-03-30T13:54:38.841Z,20.45
2019-03-30T13:57:11.704Z,20.31
2019-03-30T13:59:42.243Z,20.30
2019-03-30T14:02:19.271Z,20.25
2019-03-30T14:04:53.279Z,20.25
2019-03-30T14:07:30.281Z,20.31
2019-03-30T14:10:03.754Z,20.32
2019-03-30T14:12:39.678Z,20.44
2019-03-30T14:15:10.947Z,20.42
2019-03-30T14:17:45.692Z,20.42
2019-03-30T14:23:26.809Z,20.40
2019-03-30T14:25:58.657Z,20.63
2019-03-30T14:28:33.341Z,20.66
2019-03-30T14:31:04.338Z,20.66
2019-03-30T14:33:38.492Z,20.44
2019-03-30T14:36:08.808Z,20.27
2019-03-30T14:38:39.282Z,20.32
2019-03-30T14:41:17.757Z,20.39
2019-03-30T14:43:54.359Z,20.51
2019-03-30T14:46:45.113Z,20.66
2019-03-30T14:49:20.673Z,20.85
2019-03-30T14:51:51.728Z,20.94
2019-03-30T14:54:22.638Z,20.94
2019-03-30T14:56:53.758Z,21.04
2019-03-30T14:59:30.012Z,21.18
2019-03-30T15:02:01.208Z,21.21
2019-03-30T15:04:41.808Z,20.96
2019-03-30T15:07:13.210Z,21.08
2019-03-30T15:09:44.505Z,21.06
2019-03-30T15:12:23.319Z,21.11
2019-03-30T15:14:54.799Z,21.06
2019-03-30T15:17:26.572Z,20.86
2019-03-30T15:19:59.953Z,20.79
2019-03-30T15:22:32.361Z,20.70
2019-03-30T15:25:02.561Z,20.83
2019-03-30T15:27:32.426Z,20.83
2019-03-30T15:30:01.674Z,20.76
2019-03-30T15:32:30.866Z,20.71
2019-03-30T15:35:00.031Z,20.62
2019-03-30T15:37:29.220Z,20.79
2019-03-30T15:40:08.188Z,20.79
2019-03-30T15:42:40.139Z,20.66
2019-03-30T15:45:11.540Z,20.64
2019-03-30T15:47:40.849Z,20.57
2019-03-30T15:50:10.488Z,20.61
2019-03-30T15:52:39.699Z,20.61
2019-03-30T15:55:09.024Z,20.58
2019-03-30T15:57:38.331Z,20.33
2019-03-30T16:00:08.535Z,20.48
2019-03-30T16:02:37.698Z,20.48
2019-03-30T16:05:07.180Z,20.56
2019-03-30T16:07:36.446Z,20.57
2019-03-30T16:10:05.858Z,20.57
2019-03-30T16:12:42.439Z,20.52
2019-03-30T16:15:11.878Z,20.56
2019-03-30T16:17:41.041Z,20.56
2019-03-30T16:20:10.295Z,20.62
2019-03-30T16:22:39.543Z,20.63
2019-03-30T16:25:08.859Z,20.66
2019-03-30T16:27:39.405Z,20.69
2019-03-30T16:30:09.388Z,20.61
2019-03-30T16:32:38.537Z,20.59
2019-03-30T16:35:07.705Z,20.29
2019-03-30T16:37:36.902Z,20.31
2019-03-30T16:40:07.030Z,19.98
2019-03-30T16:42:36.471Z,19.98
2019-03-30T16:45:06.134Z,19.96
2019-03-30T16:47:35.348Z,19.92
2019-03-30T16:50:05.210Z,19.58
2019-03-30T16:52:34.880Z,19.53
2019-03-30T16:55:04.134Z,19.48
2019-03-30T16:57:43.305Z,19.48
2019-03-30T17:00:06.793Z,19.54
2019-03-30T17:02:35.960Z,19.64
2019-03-30T17:05:05.769Z,19.64
2019-03-30T17:07:35.249Z,19.48
2019-03-30T17:10:05.227Z,19.48
2019-03-30T17:12:34.477Z,19.44
2019-03-30T17:15:03.894Z,19.47
2019-03-30T17:17:33.147Z,19.38
2019-03-30T17:20:02.309Z,19.33
2019-03-30T17:22:31.480Z,19.07
2019-03-30T17:25:00.661Z,19.07
2019-03-30T17:27:29.889Z,19.00
2019-03-30T17:29:59.102Z,18.97
2019-03-30T17:32:28.375Z,18.87
2019-03-30T17:34:57.536Z,18.87
2019-03-30T17:37:26.807Z,18.74
2019-03-30T17:39:56.805Z,18.62
2019-03-30T17:42:25.954Z,18.51
2019-03-30T17:44:55.146Z,18.34
2019-03-30T17:47:43.518Z,18.19
2019-03-30T17:50:13.213Z,18.19
2019-03-30T17:52:42.557Z,18.08
2019-03-30T17:55:12.054Z,18.08
2019-03-30T17:57:41.215Z,18.02
2019-03-30T18:00:14.190Z,17.86
2019-03-30T18:02:43.413Z,17.75
2019-03-30T18:05:12.683Z,17.75
2019-03-30T18:07:41.929Z,17.67
2019-03-30T18:10:11.503Z,17.38
2019-03-30T18:12:40.794Z,17.38
2019-03-30T18:15:12.146Z,17.38
2019-03-30T18:17:41.364Z,17.30
2019-03-30T18:20:11.716Z,17.25
2019-03-30T18:22:41.013Z,16.95
2019-03-30T18:25:10.359Z,16.95
2019-03-30T18:27:39.551Z,16.85
2019-03-30T18:30:09.320Z,16.83
2019-03-30T18:32:38.613Z,16.75
2019-03-30T18:35:07.955Z,16.77
2019-03-30T18:37:37.579Z,16.77
2019-03-30T18:40:07.804Z,16.77
2019-03-30T18:42:37.049Z,16.66
2019-03-30T18:45:07.415Z,16.53
2019-03-30T18:47:36.768Z,16.53
2019-03-30T18:50:06.645Z,16.37
2019-03-30T18:52:36.392Z,16.37
2019-03-30T18:55:05.745Z,16.25
2019-03-30T18:57:35.031Z,16.22
2019-03-30T19:00:04.643Z,16.22
2019-03-30T19:02:33.820Z,16.12
2019-03-30T19:05:02.992Z,16.09
2019-03-30T19:07:32.310Z,15.86
2019-03-30T19:10:03.292Z,15.86
2019-03-30T19:12:33.707Z,15.86
2019-03-30T19:15:18.215Z,15.78
2019-03-30T19:17:47.877Z,15.68
2019-03-30T19:20:22.892Z,15.65
2019-03-30T19:22:55.329Z,15.59
2019-03-30T19:25:29.819Z,15.36
2019-03-30T19:28:04.475Z,15.29
2019-03-30T19:30:38.055Z,15.14
2019-03-30T19:33:11.993Z,15.02
2019-03-30T19:35:46.629Z,15.09
2019-03-30T19:38:17.450Z,15.06
2019-03-30T19:40:51.268Z,14.84
2019-03-30T19:43:22.595Z,14.79
2019-03-30T19:45:55.593Z,14.65
2019-03-30T19:48:30.192Z,14.62
2019-03-30T19:51:07.339Z,14.71
2019-03-30T19:53:45.742Z,14.68
2019-03-30T19:56:16.145Z,14.51
2019-03-30T19:58:47.706Z,14.25
2019-03-30T20:01:20.236Z,14.30
2019-03-30T20:03:54.071Z,14.23
2019-03-30T20:06:25.246Z,14.24
2019-03-30T20:09:20.725Z,14.25
2019-03-30T20:11:51.785Z,14.14
2019-03-30T20:14:21.768Z,13.87
2019-03-30T20:17:13.814Z,13.85
2019-03-30T20:19:59.449Z,13.81
2019-03-30T20:22:50.740Z,13.86
2019-03-30T20:25:25.799Z,13.56
2019-03-30T20:27:56.102Z,13.16
2019-03-30T20:30:42.587Z,13.32
2019-03-30T20:33:15.020Z,13.30
2019-03-30T20:35:51.405Z,13.30
2019-03-30T20:38:21.144Z,12.94
2019-03-30T20:40:51.197Z,12.80
2019-03-30T20:43:31.478Z,12.88
2019-03-30T20:46:08.190Z,12.88
2019-03-30T20:48:38.663Z,12.93
2019-03-30T20:51:42.226Z,12.86
2019-03-30T20:54:17.015Z,12.85
2019-03-30T20:57:01.009Z,12.63
2019-03-30T20:59:40.138Z,11.99
2019-03-30T21:02:11.943Z,11.97
2019-03-30T21:04:43.730Z,12.10
2019-03-30T21:07:17.191Z,12.15
2019-03-30T21:09:47.974Z,12.16
2019-03-30T21:12:20.957Z,12.19
2019-03-30T21:14:50.688Z,12.17
2019-03-30T21:17:31.161Z,12.16
2019-03-30T21:20:05.435Z,11.96
2019-03-30T21:22:36.827Z,11.90
2019-03-30T21:25:11.612Z,11.77
2019-03-30T21:27:43.248Z,11.58
2019-03-30T21:30:14.110Z,11.59
2019-03-30T21:32:48.414Z,11.59
2019-03-30T21:35:33.600Z,11.61
2019-03-30T21:38:24.009Z,11.39
2019-03-30T21:40:57.640Z,11.16
2019-03-30T21:43:30.806Z,11.12
2019-03-30T21:46:02.408Z,11.07
2019-03-30T21:48:40.895Z,10.94
2019-03-30T21:51:15.621Z,10.97
2019-03-30T21:53:46.954Z,10.97
2019-03-30T21:56:22.739Z,10.95
2019-03-30T21:58:54.553Z,10.85
2019-03-30T22:04:24.988Z,10.21
2019-03-30T22:07:00.098Z,10.42
2019-03-30T22:09:50.398Z,10.49
2019-03-30T22:12:26.696Z,10.54
2019-03-30T22:14:57.618Z,10.60
2019-03-30T22:17:30.190Z,10.53
2019-03-30T22:20:07.131Z,10.54
2019-03-30T22:22:39.309Z,10.54
2019-03-30T22:25:10.799Z,10.51
2019-03-30T22:27:50.975Z,10.28
2019-03-30T22:30:24.997Z,10.21
2019-03-30T22:32:54.309Z,10.18
2019-03-30T22:35:27.552Z,10.11
2019-03-30T22:37:58.004Z,10.06
2019-03-30T22:40:27.421Z,10.12
2019-03-30T22:42:59.547Z,10.19
2019-03-30T22:45:31.912Z,10.21
2019-03-30T22:48:16.083Z,10.26
2019-03-30T22:50:46.651Z,10.25
2019-03-30T22:53:21.143Z,10.25
2019-03-30T22:56:17.365Z,10.09
2019-03-30T22:58:49.164Z,10.01
2019-03-30T23:01:23.549Z,9.90
2019-03-30T23:03:56.539Z,9.87
2019-03-30T23:06:27.514Z,10.04
2019-03-30T23:09:01.066Z,10.13
2019-03-30T23:11:34.410Z,9.97
2019-03-30T23:14:05.209Z,9.99
2019-03-30T23:16:34.665Z,10.10
2019-03-30T23:19:09.645Z,10.08
2019-03-30T23:22:03.562Z,10.06
2019-03-30T23:24:45.625Z,9.97
2019-03-30T23:27:23.051Z,9.60
2019-03-30T23:29:58.660Z,9.54
2019-03-30T23:32:33.748Z,9.64
2019-03-30T23:35:06.214Z,9.49
2019-03-30T23:37:42.919Z,9.50
2019-03-30T23:40:12.265Z,9.82
2019-03-30T23:42:47.008Z,9.86
2019-03-30T23:45:26.040Z,9.59
2019-03-30T23:47:56.021Z,9.29
2019-03-30T23:50:26.390Z,9.21
2019-03-30T23:52:59.051Z,9.32
2019-03-30T23:55:30.268Z,9.50
2019-03-30T23:58:05.113Z,9.49
